createdAt,value
2022-07-25T00:00:45.668Z,4.80
2022-07-25T00:03:14.092Z,5.95
2022-07-25T00:05:45.665Z,5.13
2022-07-25T00:08:12.722Z,4.82
2022-07-25T00:10:39.756Z,4.68
2022-07-25T00:13:06.878Z,5.45
2022-07-25T00:15:34.055Z,5.07
2022-07-25T00:18:02.201Z,5.32
2022-07-25T00:20:30.938Z,5.30
2022-07-25T00:23:08.299Z,4.82
2022-07-25T00:25:35.424Z,5.75
2022-07-25T00:28:02.501Z,4.85
2022-07-25T00:30:29.587Z,5.40
2022-07-25T00:32:56.677Z,5.10
2022-07-25T00:35:23.802Z,5.30
2022-07-25T00:37:50.845Z,5.22
2022-07-25T00:40:17.909Z,5.53
2022-07-25T00:42:44.946Z,5.25
2022-07-25T00:45:11.985Z,5.10
2022-07-25T00:47:39.068Z,4.93
2022-07-25T00:50:06.603Z,5.35
2022-07-25T00:52:35.273Z,5.28
2022-07-25T00:55:02.451Z,5.28
2022-07-25T00:57:29.502Z,5.88
2022-07-25T00:59:56.548Z,5.03
2022-07-25T01:02:23.651Z,5.38
2022-07-25T01:04:51.243Z,4.90
2022-07-25T01:07:18.406Z,6.25
2022-07-25T01:09:45.825Z,4.95
2022-07-25T01:12:12.860Z,5.53
2022-07-25T01:14:39.965Z,5.28
2022-07-25T01:17:07.011Z,4.93
2022-07-25T01:19:34.077Z,6.30
2022-07-25T01:22:01.159Z,5.68
2022-07-25T01:24:29.158Z,5.60
2022-07-25T01:26:56.225Z,5.28
2022-07-25T01:29:23.275Z,5.45
2022-07-25T01:31:50.317Z,6.15
2022-07-25T01:34:17.391Z,5.90
2022-07-25T01:36:44.477Z,4.75
2022-07-25T01:39:11.608Z,5.20
2022-07-25T01:41:38.691Z,5.85
2022-07-25T01:44:06.069Z,5.88
2022-07-25T01:46:33.440Z,4.85
2022-07-25T01:49:00.639Z,5.38
2022-07-25T01:51:27.731Z,5.68
2022-07-25T01:53:54.752Z,5.03
2022-07-25T01:56:22.519Z,5.50
2022-07-25T01:58:49.683Z,4.63
2022-07-25T02:01:16.781Z,5.47
2022-07-25T02:03:46.396Z,5.00
2022-07-25T02:06:13.436Z,5.18
2022-07-25T02:08:40.485Z,6.10
2022-07-25T02:11:07.527Z,5.70
2022-07-25T02:13:34.605Z,5.07
2022-07-25T02:16:01.638Z,5.60
2022-07-25T02:18:29.456Z,5.18
2022-07-25T02:20:56.483Z,4.80
2022-07-25T02:23:23.571Z,5.45
2022-07-25T02:25:50.587Z,5.50
2022-07-25T02:28:18.115Z,5.50
2022-07-25T02:30:45.299Z,6.40
2022-07-25T02:33:12.366Z,5.07
2022-07-25T02:35:39.403Z,19.63
2022-07-25T02:38:07.138Z,5.97
2022-07-25T02:40:34.230Z,5.20
2022-07-25T02:43:01.353Z,5.38
2022-07-25T02:45:28.427Z,5.20
2022-07-25T02:47:55.445Z,5.72
2022-07-25T02:50:23.779Z,5.43
2022-07-25T02:52:50.816Z,5.40
2022-07-25T02:55:17.887Z,6.10
2022-07-25T02:57:44.905Z,5.60
2022-07-25T03:00:12.855Z,5.93
2022-07-25T03:02:40.169Z,5.40
2022-07-25T03:05:14.495Z,5.75
2022-07-25T03:07:43.369Z,5.43
2022-07-25T03:10:12.196Z,5.30
2022-07-25T03:12:40.693Z,5.55
2022-07-25T03:15:09.080Z,5.25
2022-07-25T03:17:36.525Z,4.95
2022-07-25T03:20:08.298Z,5.70
2022-07-25T03:22:35.849Z,5.23
2022-07-25T03:25:03.849Z,5.70
2022-07-25T03:27:31.274Z,6.05
2022-07-25T03:29:58.400Z,5.43
2022-07-25T03:32:26.553Z,6.10
2022-07-25T03:34:53.670Z,5.68
2022-07-25T03:37:21.780Z,5.55
2022-07-25T03:39:49.101Z,5.82
2022-07-25T03:42:16.230Z,6.82
2022-07-25T03:44:43.291Z,5.57
2022-07-25T03:47:10.310Z,5.88
2022-07-25T03:49:47.830Z,6.32
2022-07-25T03:52:14.861Z,6.70
2022-07-25T03:54:41.895Z,5.43
2022-07-25T03:57:08.937Z,6.07
2022-07-25T03:59:35.971Z,6.03
2022-07-25T04:02:03.016Z,5.60
2022-07-25T04:04:30.421Z,5.00
2022-07-25T04:06:57.495Z,5.55
2022-07-25T04:09:24.573Z,6.30
2022-07-25T04:11:51.618Z,5.88
2022-07-25T04:14:18.748Z,6.07
2022-07-25T04:16:45.841Z,6.13
2022-07-25T04:19:13.021Z,5.82
2022-07-25T04:21:40.219Z,5.95
2022-07-25T04:24:07.811Z,6.25
2022-07-25T04:26:35.077Z,5.80
2022-07-25T04:29:03.647Z,5.97
2022-07-25T04:31:30.978Z,6.07
2022-07-25T04:33:58.107Z,6.15
2022-07-25T04:36:26.530Z,6.15
2022-07-25T04:38:53.665Z,5.50
2022-07-25T04:41:20.740Z,5.75
2022-07-25T04:43:48.868Z,5.43
2022-07-25T04:46:20.690Z,5.25
2022-07-25T04:48:48.902Z,6.00
2022-07-25T04:51:17.048Z,5.93
2022-07-25T04:53:44.502Z,5.50
2022-07-25T04:56:11.623Z,5.55
2022-07-25T04:58:38.947Z,5.75
2022-07-25T05:01:06.284Z,5.93
2022-07-25T05:03:33.385Z,5.80
2022-07-25T05:06:00.463Z,5.70
2022-07-25T05:08:27.571Z,5.75
2022-07-25T05:10:54.632Z,6.32
2022-07-25T05:13:21.649Z,6.35
2022-07-25T05:15:48.724Z,5.97
2022-07-25T05:18:15.782Z,6.03
2022-07-25T05:20:42.809Z,5.88
2022-07-25T05:23:09.864Z,6.55
2022-07-25T05:25:36.882Z,6.57
2022-07-25T05:28:04.145Z,5.63
2022-07-25T05:30:32.695Z,5.68
2022-07-25T05:33:01.391Z,6.93
2022-07-25T05:35:28.585Z,7.47
2022-07-25T05:37:55.768Z,7.38
2022-07-25T05:40:23.042Z,8.48
2022-07-25T05:42:50.090Z,7.40
2022-07-25T05:45:17.151Z,7.72
2022-07-25T05:47:44.216Z,7.75
2022-07-25T05:50:11.373Z,7.97
2022-07-25T05:52:38.501Z,7.25
2022-07-25T05:55:06.113Z,6.93
2022-07-25T05:57:35.283Z,6.53
2022-07-25T06:00:05.135Z,6.68
2022-07-25T06:02:32.451Z,6.30
2022-07-25T06:04:59.714Z,6.18
2022-07-25T06:07:26.778Z,6.57
2022-07-25T06:09:53.918Z,7.47
2022-07-25T06:12:20.967Z,6.10
2022-07-25T06:14:51.625Z,6.72
2022-07-25T06:17:18.694Z,6.00
2022-07-25T06:19:45.721Z,5.13
2022-07-25T06:22:13.735Z,6.38
2022-07-25T06:24:42.208Z,6.30
2022-07-25T06:27:09.258Z,6.22
2022-07-25T06:29:37.866Z,6.65
2022-07-25T06:32:05.289Z,6.15
2022-07-25T06:34:32.313Z,6.32
2022-07-25T06:36:59.489Z,5.55
2022-07-25T06:39:28.014Z,6.18
2022-07-25T06:41:55.125Z,6.32
2022-07-25T06:44:22.190Z,5.70
2022-07-25T06:46:49.581Z,5.68
2022-07-25T06:49:18.324Z,5.82
2022-07-25T06:51:45.388Z,5.40
2022-07-25T06:54:14.220Z,5.43
2022-07-25T06:56:41.297Z,5.35
2022-07-25T06:59:08.545Z,5.40
2022-07-25T07:01:35.771Z,5.07
2022-07-25T07:04:04.190Z,6.00
2022-07-25T07:06:31.614Z,5.13
2022-07-25T07:08:58.628Z,5.25
2022-07-25T07:11:25.776Z,5.82
2022-07-25T07:13:52.885Z,5.65
2022-07-25T07:16:20.191Z,4.78
2022-07-25T07:18:49.439Z,5.57
2022-07-25T07:21:21.308Z,5.32
2022-07-25T07:23:49.331Z,5.13
2022-07-25T07:26:21.381Z,4.60
2022-07-25T07:28:48.542Z,4.47
2022-07-25T07:31:18.348Z,4.68
2022-07-25T07:33:45.745Z,4.88
2022-07-25T07:36:12.920Z,4.07
2022-07-25T07:38:40.026Z,5.30
2022-07-25T07:41:07.754Z,4.90
2022-07-25T07:43:35.791Z,4.72
2022-07-25T07:46:03.146Z,5.20
2022-07-25T07:48:31.379Z,5.95
2022-07-25T07:51:00.154Z,5.03
2022-07-25T07:53:48.010Z,5.13
2022-07-25T07:56:16.137Z,5.25
2022-07-25T07:58:43.357Z,4.97
2022-07-25T08:01:10.901Z,4.57
2022-07-25T08:03:37.935Z,4.78
2022-07-25T08:06:05.510Z,5.38
2022-07-25T08:08:32.578Z,3.88
2022-07-25T08:10:59.997Z,4.68
2022-07-25T08:13:30.437Z,5.15
2022-07-25T08:15:59.306Z,4.05
2022-07-25T08:18:29.847Z,4.03
2022-07-25T08:20:57.261Z,4.18
2022-07-25T08:23:25.655Z,4.32
2022-07-25T08:25:52.724Z,4.28
2022-07-25T08:28:20.640Z,4.45
2022-07-25T08:30:47.832Z,3.72
2022-07-25T08:33:17.964Z,3.63
2022-07-25T08:35:54.485Z,4.68
2022-07-25T08:38:22.902Z,4.00
2022-07-25T08:40:50.639Z,3.67
2022-07-25T08:43:19.200Z,3.58
2022-07-25T08:45:48.746Z,3.50
2022-07-25T08:48:20.961Z,3.70
2022-07-25T08:50:48.984Z,3.75
2022-07-25T08:53:35.243Z,3.97
2022-07-25T08:56:13.307Z,3.58
2022-07-25T08:58:44.143Z,3.55
2022-07-25T09:01:12.911Z,4.15
2022-07-25T09:03:41.383Z,3.92
2022-07-25T09:06:19.476Z,4.05
2022-07-25T09:08:55.290Z,3.17
2022-07-25T09:11:37.529Z,5.03
2022-07-25T09:14:11.524Z,4.32
2022-07-25T09:16:44.924Z,3.75
2022-07-25T09:19:21.089Z,4.05
2022-07-25T09:22:03.574Z,3.60
2022-07-25T09:24:32.593Z,4.00
2022-07-25T09:27:02.256Z,3.45
2022-07-25T09:29:34.338Z,3.83
2022-07-25T09:32:13.214Z,2.92
2022-07-25T09:34:42.205Z,4.25
2022-07-25T09:37:12.341Z,3.58
2022-07-25T09:39:46.033Z,3.70
2022-07-25T09:42:17.962Z,3.63
2022-07-25T09:44:56.913Z,3.90
2022-07-25T09:47:24.310Z,4.00
2022-07-25T09:49:52.211Z,3.65
2022-07-25T09:52:19.400Z,4.85
2022-07-25T09:54:46.517Z,3.97
2022-07-25T09:57:13.638Z,4.30
2022-07-25T09:59:40.806Z,4.20
2022-07-25T10:02:32.459Z,4.53
2022-07-25T10:05:14.596Z,3.42
2022-07-25T10:07:50.603Z,3.92
2022-07-25T10:10:32.467Z,3.45
2022-07-25T10:13:10.184Z,4.15
2022-07-25T10:15:42.240Z,3.85
2022-07-25T10:18:10.063Z,4.45
2022-07-25T10:20:37.380Z,3.08
2022-07-25T10:23:05.272Z,3.40
2022-07-25T10:25:33.241Z,4.15
2022-07-25T10:28:08.218Z,4.57
2022-07-25T10:30:39.871Z,3.83
2022-07-25T10:33:21.434Z,4.32
2022-07-25T10:35:48.680Z,5.70
2022-07-25T10:38:24.953Z,3.75
2022-07-25T10:40:52.534Z,4.07
2022-07-25T10:43:21.879Z,4.07
2022-07-25T10:45:58.052Z,4.18
2022-07-25T10:48:37.693Z,4.00
2022-07-25T10:51:14.107Z,4.03
2022-07-25T10:53:47.258Z,3.90
2022-07-25T10:56:17.558Z,3.95
2022-07-25T10:58:54.017Z,3.88
2022-07-25T11:01:27.107Z,4.30
2022-07-25T11:03:57.394Z,4.20
2022-07-25T11:06:39.713Z,4.20
2022-07-25T11:09:23.783Z,3.85
2022-07-25T11:11:56.221Z,3.47
2022-07-25T11:14:31.187Z,4.13
2022-07-25T11:17:09.254Z,4.32
2022-07-25T11:19:36.362Z,4.25
2022-07-25T11:22:04.516Z,4.13
2022-07-25T11:24:43.047Z,4.03
2022-07-25T11:27:13.279Z,4.00
2022-07-25T11:29:41.328Z,3.65
2022-07-25T11:32:11.050Z,3.63
2022-07-25T11:34:43.636Z,4.03
2022-07-25T11:37:12.388Z,4.13
2022-07-25T11:39:41.969Z,3.65
2022-07-25T11:42:18.406Z,3.85
2022-07-25T11:44:49.131Z,3.72
2022-07-25T11:47:30.815Z,3.60
2022-07-25T11:50:00.435Z,4.03
2022-07-25T11:52:32.604Z,3.50
2022-07-25T11:55:11.963Z,4.57
2022-07-25T11:57:41.815Z,4.25
2022-07-25T12:00:15.380Z,4.35
2022-07-25T12:02:42.689Z,4.40
2022-07-25T12:05:12.975Z,4.78
2022-07-25T12:07:47.070Z,3.70
2022-07-25T12:10:18.552Z,4.22
2022-07-25T12:12:56.146Z,3.87
2022-07-25T12:15:27.288Z,4.38
2022-07-25T12:17:56.910Z,4.00
2022-07-25T12:20:38.021Z,4.30
2022-07-25T12:23:09.608Z,4.47
2022-07-25T12:25:42.778Z,4.60
2022-07-25T12:28:11.032Z,3.92
2022-07-25T12:30:39.441Z,4.25
2022-07-25T12:33:06.811Z,3.55
2022-07-25T12:35:34.803Z,4.55
2022-07-25T12:38:01.837Z,4.35
2022-07-25T12:40:29.019Z,4.43
2022-07-25T12:42:57.176Z,4.55
2022-07-25T12:45:24.498Z,4.20
2022-07-25T12:47:51.537Z,4.22
2022-07-25T12:50:18.863Z,4.03
2022-07-25T12:52:46.619Z,4.00
2022-07-25T12:55:16.996Z,3.75
2022-07-25T12:57:44.904Z,4.07
2022-07-25T13:00:15.932Z,3.85
2022-07-25T13:02:43.334Z,3.88
2022-07-25T13:05:11.011Z,4.63
2022-07-25T13:07:38.197Z,4.50
2022-07-25T13:10:06.625Z,5.13
2022-07-25T13:12:33.845Z,5.07
2022-07-25T13:15:01.536Z,3.90
2022-07-25T13:17:28.697Z,4.20
2022-07-25T13:19:56.697Z,4.93
2022-07-25T13:22:24.920Z,5.07
2022-07-25T13:24:53.369Z,3.92
2022-07-25T13:27:22.008Z,4.28
2022-07-25T13:29:54.691Z,4.15
2022-07-25T13:32:22.508Z,4.43
2022-07-25T13:34:49.790Z,3.90
2022-07-25T13:37:17.011Z,3.75
2022-07-25T13:39:44.177Z,3.92
2022-07-25T13:42:11.277Z,4.18
2022-07-25T13:44:38.344Z,3.92
2022-07-25T13:47:05.606Z,3.33
2022-07-25T13:49:32.798Z,4.10
2022-07-25T13:51:59.910Z,3.45
2022-07-25T13:54:27.125Z,3.35
2022-07-25T13:56:54.298Z,4.07
2022-07-25T13:59:22.074Z,4.47
2022-07-25T14:01:49.903Z,4.05
2022-07-25T14:04:17.333Z,3.95
2022-07-25T14:06:44.549Z,3.47
2022-07-25T14:09:11.911Z,4.50
2022-07-25T14:11:39.002Z,4.57
2022-07-25T14:14:06.045Z,4.60
2022-07-25T14:16:34.330Z,4.50
2022-07-25T14:19:02.214Z,4.63
2022-07-25T14:21:30.170Z,4.85
2022-07-25T14:23:57.359Z,5.03
2022-07-25T14:26:25.695Z,4.70
2022-07-25T14:28:52.939Z,4.63
2022-07-25T14:31:21.218Z,4.70
2022-07-25T14:33:48.316Z,5.25
2022-07-25T14:36:15.464Z,4.28
2022-07-25T14:38:42.539Z,5.60
2022-07-25T14:41:13.090Z,4.68
2022-07-25T14:43:41.628Z,4.70
2022-07-25T14:46:08.981Z,4.57
2022-07-25T14:48:37.950Z,4.63
2022-07-25T14:51:05.906Z,4.82
2022-07-25T14:53:34.035Z,4.65
2022-07-25T14:56:03.110Z,4.05
2022-07-25T14:58:30.805Z,4.47
2022-07-25T15:00:57.992Z,3.90
2022-07-25T15:03:25.226Z,4.65
2022-07-25T15:05:52.302Z,4.30
2022-07-25T15:08:19.529Z,4.10
2022-07-25T15:10:47.025Z,3.60
2022-07-25T15:13:30.548Z,4.00
2022-07-25T15:15:59.808Z,3.30
2022-07-25T15:18:27.204Z,3.67
2022-07-25T15:20:55.184Z,3.50
2022-07-25T15:23:24.658Z,3.15
2022-07-25T15:26:01.774Z,3.50
2022-07-25T15:28:34.574Z,2.65
2022-07-25T15:31:02.203Z,3.10
2022-07-25T15:33:29.681Z,3.13
2022-07-25T15:35:56.809Z,3.58
2022-07-25T15:38:23.979Z,2.78
2022-07-25T15:40:55.047Z,2.58
2022-07-25T15:43:22.134Z,2.63
2022-07-25T15:45:49.252Z,3.13
2022-07-25T15:48:17.015Z,3.88
2022-07-25T15:50:47.858Z,2.50
2022-07-25T15:53:15.375Z,2.67
2022-07-25T15:55:43.166Z,2.90
2022-07-25T15:58:11.522Z,2.42
2022-07-25T16:00:40.023Z,2.00
2022-07-25T16:03:07.548Z,1.55
2022-07-25T16:05:34.851Z,1.75
2022-07-25T16:08:02.636Z,1.85
2022-07-25T16:10:31.572Z,1.80
2022-07-25T16:12:58.940Z,1.40
2022-07-25T16:15:26.445Z,1.40
2022-07-25T16:18:00.105Z,1.70
2022-07-25T16:20:31.837Z,1.83
2022-07-25T16:23:00.315Z,1.88
2022-07-25T16:25:28.510Z,1.50
2022-07-25T16:27:56.351Z,1.52
2022-07-25T16:30:23.705Z,1.38
2022-07-25T16:32:50.879Z,1.08
2022-07-25T16:35:18.139Z,1.50
2022-07-25T16:37:45.255Z,1.13
2022-07-25T16:40:12.624Z,1.40
2022-07-25T16:42:39.816Z,1.38
2022-07-25T16:45:07.490Z,1.52
2022-07-25T16:47:34.768Z,1.30
2022-07-25T16:50:01.862Z,1.33
2022-07-25T16:52:28.936Z,1.33
2022-07-25T16:54:55.999Z,1.30
2022-07-25T16:57:25.025Z,1.20
2022-07-25T16:59:53.446Z,1.42
2022-07-25T17:02:26.217Z,0.90
2022-07-25T17:04:56.624Z,1.40
2022-07-25T17:07:23.985Z,1.85
2022-07-25T17:09:51.428Z,3.50
2022-07-25T17:12:19.159Z,1.30
2022-07-25T17:14:46.469Z,1.08
2022-07-25T17:17:13.699Z,1.50
2022-07-25T17:19:40.853Z,1.35
2022-07-25T17:22:09.646Z,1.13
2022-07-25T17:24:37.699Z,1.92
2022-07-25T17:27:07.766Z,1.45
2022-07-25T17:29:34.926Z,1.80
2022-07-25T17:32:02.277Z,1.58
2022-07-25T17:34:29.339Z,1.55
2022-07-25T17:36:57.245Z,1.55
2022-07-25T17:39:25.491Z,1.45
2022-07-25T17:41:52.641Z,1.60
2022-07-25T17:44:20.344Z,1.30
2022-07-25T17:46:49.872Z,1.42
2022-07-25T17:49:17.063Z,1.50
2022-07-25T17:51:44.334Z,1.42
2022-07-25T17:54:11.969Z,1.25
2022-07-25T17:56:39.318Z,1.45
2022-07-25T17:59:08.346Z,1.00
2022-07-25T18:01:35.694Z,0.82
2022-07-25T18:04:03.597Z,1.27
2022-07-25T18:06:30.881Z,1.30
2022-07-25T18:08:57.928Z,1.70
2022-07-25T18:11:25.135Z,1.58
2022-07-25T18:13:52.197Z,1.15
2022-07-25T18:16:19.345Z,1.10
2022-07-25T18:18:46.586Z,1.35
2022-07-25T18:21:13.637Z,1.35
2022-07-25T18:23:40.691Z,1.27
2022-07-25T18:26:08.907Z,1.00
2022-07-25T18:28:36.240Z,0.95
2022-07-25T18:31:04.402Z,1.05
2022-07-25T18:33:31.661Z,1.30
2022-07-25T18:35:59.479Z,1.63
2022-07-25T18:38:28.844Z,1.30
2022-07-25T18:41:12.565Z,1.95
2022-07-25T18:43:43.077Z,1.50
2022-07-25T18:46:12.866Z,1.98
2022-07-25T18:48:42.311Z,1.40
2022-07-25T18:51:09.587Z,1.30
2022-07-25T18:53:37.164Z,1.30
2022-07-25T18:56:05.763Z,1.25
2022-07-25T18:58:33.246Z,0.95
2022-07-25T19:04:48.093Z,1.85
2022-07-25T19:07:15.207Z,1.25
2022-07-25T19:09:42.229Z,1.48
2022-07-25T19:12:10.199Z,1.55
2022-07-25T19:14:37.234Z,1.20
2022-07-25T19:17:04.494Z,1.50
2022-07-25T19:19:31.716Z,1.20
2022-07-25T19:21:58.825Z,1.75
2022-07-25T19:24:25.928Z,1.60
2022-07-25T19:26:53.125Z,1.65
2022-07-25T19:29:20.916Z,1.20
2022-07-25T19:31:48.121Z,1.20
2022-07-25T19:34:15.175Z,1.35
2022-07-25T19:36:45.736Z,1.63
2022-07-25T19:39:13.158Z,1.50
2022-07-25T19:41:46.172Z,1.33
2022-07-25T19:44:14.249Z,1.30
2022-07-25T19:46:41.363Z,1.67
2022-07-25T19:49:08.735Z,1.35
2022-07-25T19:51:36.126Z,1.63
2022-07-25T19:54:03.655Z,1.70
2022-07-25T19:56:31.594Z,1.67
2022-07-25T19:58:58.638Z,1.58
2022-07-25T20:01:29.941Z,1.27
2022-07-25T20:03:57.155Z,1.70
2022-07-25T20:06:24.753Z,1.80
2022-07-25T20:08:51.943Z,1.50
2022-07-25T20:11:19.321Z,1.40
2022-07-25T20:13:46.405Z,1.63
2022-07-25T20:16:13.507Z,2.00
2022-07-25T20:18:40.533Z,1.77
2022-07-25T20:21:07.880Z,1.35
2022-07-25T20:23:34.934Z,1.67
2022-07-25T20:26:02.385Z,1.90
2022-07-25T20:28:30.072Z,1.60
2022-07-25T20:30:58.485Z,1.60
2022-07-25T20:33:27.081Z,1.52
2022-07-25T20:35:54.885Z,1.48
2022-07-25T20:38:23.090Z,1.50
2022-07-25T20:40:52.219Z,1.40
2022-07-25T20:43:19.374Z,1.80
2022-07-25T20:45:47.547Z,1.67
2022-07-25T20:48:14.782Z,2.17
2022-07-25T20:50:42.430Z,1.70
2022-07-25T20:53:10.131Z,1.52
2022-07-25T20:55:37.288Z,1.50
2022-07-25T20:58:04.918Z,1.52
2022-07-25T21:00:32.332Z,2.17
2022-07-25T21:03:00.294Z,1.50
2022-07-25T21:05:27.879Z,1.38
2022-07-25T21:07:54.998Z,1.02
2022-07-25T21:10:22.323Z,1.50
2022-07-25T21:12:49.490Z,1.88
2022-07-25T21:15:16.977Z,2.20
2022-07-25T21:17:44.341Z,1.40
2022-07-25T21:20:13.332Z,1.52
2022-07-25T21:22:41.309Z,1.20
2022-07-25T21:25:09.092Z,1.15
2022-07-25T21:27:36.765Z,1.50
2022-07-25T21:30:06.675Z,1.60
2022-07-25T21:32:34.162Z,1.60
2022-07-25T21:35:01.373Z,1.20
2022-07-25T21:37:28.555Z,1.27
2022-07-25T21:39:55.547Z,1.73
2022-07-25T21:42:22.593Z,1.33
2022-07-25T21:44:49.643Z,1.73
2022-07-25T21:47:16.696Z,2.28
2022-07-25T21:50:02.196Z,1.95
2022-07-25T21:52:34.718Z,1.35
2022-07-25T21:55:04.061Z,1.70
2022-07-25T21:57:31.463Z,1.67
2022-07-25T21:59:58.516Z,1.27
2022-07-25T22:02:25.940Z,1.42
2022-07-25T22:04:53.096Z,1.50
2022-07-25T22:07:20.393Z,1.50
2022-07-25T22:09:47.430Z,1.48
2022-07-25T22:12:14.949Z,1.38
2022-07-25T22:14:42.110Z,1.98
2022-07-25T22:17:09.399Z,1.50
2022-07-25T22:19:36.501Z,1.42
2022-07-25T22:22:05.707Z,2.13
2022-07-25T22:24:33.312Z,1.55
2022-07-25T22:27:00.495Z,1.52
2022-07-25T22:29:27.565Z,1.40
2022-07-25T22:31:54.676Z,1.50
2022-07-25T22:34:21.779Z,1.38
2022-07-25T22:36:48.895Z,1.77
2022-07-25T22:39:16.794Z,1.52
2022-07-25T22:41:44.347Z,1.70
2022-07-25T22:44:11.454Z,2.03
2022-07-25T22:46:38.608Z,1.33
2022-07-25T22:49:06.011Z,1.42
2022-07-25T22:51:33.621Z,1.58
2022-07-25T22:54:01.273Z,1.65
2022-07-25T22:56:29.258Z,1.40
2022-07-25T22:58:57.144Z,1.50
2022-07-25T23:01:24.755Z,1.55
2022-07-25T23:03:52.144Z,1.42
2022-07-25T23:06:20.785Z,1.67
2022-07-25T23:08:48.938Z,1.10
2022-07-25T23:11:16.632Z,1.20
2022-07-25T23:13:43.721Z,0.95
2022-07-25T23:16:10.884Z,1.10
2022-07-25T23:18:38.364Z,1.10
2022-07-25T23:21:05.838Z,1.30
2022-07-25T23:23:32.935Z,1.15
2022-07-25T23:26:00.175Z,1.58
2022-07-25T23:28:27.245Z,1.52
2022-07-25T23:30:54.289Z,1.42
2022-07-25T23:33:25.512Z,1.65
2022-07-25T23:35:54.132Z,1.40
2022-07-25T23:38:21.798Z,1.77
2022-07-25T23:40:49.489Z,1.00
2022-07-25T23:43:31.915Z,1.05
2022-07-25T23:46:03.850Z,1.38
2022-07-25T23:48:33.614Z,0.98
2022-07-25T23:51:01.090Z,1.35
2022-07-25T23:53:28.416Z,1.98
2022-07-25T23:55:55.463Z,0.80
2022-07-25T23:58:22.699Z,1.02
